createdAt,value
2023-01-28T00:00:51.278Z,99103.44
2023-01-28T00:03:18.833Z,99114.59
2023-01-28T00:05:45.980Z,99107.13
2023-01-28T00:08:14.839Z,99117.47
2023-01-28T00:10:43.225Z,99127.75
2023-01-28T00:13:11.515Z,99110.34
2023-01-28T00:15:38.646Z,99120.84
2023-01-28T00:18:06.082Z,99114.53
2023-01-28T00:20:33.341Z,99116.25
2023-01-28T00:23:00.475Z,99116.87
2023-01-28T00:25:27.918Z,99118.06
2023-01-28T00:27:55.632Z,99116.03
2023-01-28T00:30:23.489Z,99120.00
2023-01-28T00:32:50.963Z,99123.78
2023-01-28T00:35:19.475Z,99111.81
2023-01-28T00:37:47.353Z,99131.16
2023-01-28T00:40:15.095Z,99120.06
2023-01-28T00:42:42.537Z,99126.88
2023-01-28T00:45:11.003Z,99128.28
2023-01-28T00:47:38.724Z,99123.38
2023-01-28T00:50:06.114Z,99135.88
2023-01-28T00:52:33.273Z,99132.91
2023-01-28T00:55:10.176Z,99132.34
2023-01-28T00:57:37.430Z,99136.97
2023-01-28T01:00:05.526Z,99138.28
2023-01-28T01:02:32.750Z,99134.56
2023-01-28T01:05:00.045Z,99138.19
2023-01-28T01:07:43.738Z,99138.16
2023-01-28T01:10:12.832Z,99137.31
2023-01-28T01:12:40.414Z,99139.56
2023-01-28T01:15:11.137Z,99140.63
2023-01-28T01:17:38.881Z,99134.38
2023-01-28T01:20:08.089Z,99128.03
2023-01-28T01:22:37.795Z,99148.37
2023-01-28T01:25:05.483Z,99127.56
2023-01-28T01:27:32.956Z,99142.22
2023-01-28T01:30:00.125Z,99137.72
2023-01-28T01:32:30.700Z,99137.56
2023-01-28T01:34:58.205Z,99141.22
2023-01-28T01:37:25.473Z,99139.28
2023-01-28T01:39:52.637Z,99146.66
2023-01-28T01:42:20.210Z,99144.62
2023-01-28T01:45:06.684Z,99133.00
2023-01-28T01:47:34.188Z,99140.50
2023-01-28T01:50:02.265Z,99130.09
2023-01-28T01:52:31.785Z,99149.53
2023-01-28T01:54:59.697Z,99147.50
2023-01-28T01:57:28.666Z,99149.28
2023-01-28T01:59:55.846Z,99152.22
2023-01-28T02:02:23.396Z,99155.84
2023-01-28T02:04:50.848Z,99147.22
2023-01-28T02:07:18.304Z,99145.22
2023-01-28T02:09:48.315Z,99151.69
2023-01-28T02:12:19.839Z,99143.06
2023-01-28T02:14:52.121Z,99151.62
2023-01-28T02:17:19.520Z,99138.19
2023-01-28T02:19:46.639Z,99149.00
2023-01-28T02:22:32.708Z,99139.84
2023-01-28T02:25:12.650Z,99150.78
2023-01-28T02:27:58.862Z,99149.44
2023-01-28T02:30:28.999Z,99144.53
2023-01-28T02:32:57.897Z,99135.41
2023-01-28T02:35:28.878Z,99139.66
2023-01-28T02:38:01.015Z,99138.53
2023-01-28T02:40:34.227Z,99135.16
2023-01-28T02:43:01.689Z,99140.63
2023-01-28T02:45:51.615Z,99142.19
2023-01-28T02:48:19.761Z,99140.56
2023-01-28T02:50:49.507Z,99134.59
2023-01-28T02:53:40.827Z,99141.97
2023-01-28T02:56:17.444Z,99141.91
2023-01-28T02:58:50.244Z,99143.22
2023-01-28T03:01:27.855Z,99141.50
2023-01-28T03:03:59.772Z,99138.72
2023-01-28T03:06:53.628Z,99142.50
2023-01-28T03:09:24.288Z,99134.31
2023-01-28T03:12:26.892Z,99142.69
2023-01-28T03:15:31.933Z,99141.59
2023-01-28T03:18:37.319Z,99147.81
2023-01-28T03:21:24.631Z,99148.09
2023-01-28T03:24:29.706Z,99146.91
2023-01-28T03:27:16.681Z,99146.66
2023-01-28T03:30:07.406Z,99155.69
2023-01-28T03:32:54.225Z,99153.75
2023-01-28T03:35:40.875Z,99151.41
2023-01-28T03:38:18.272Z,99150.84
2023-01-28T03:40:52.516Z,99146.41
2023-01-28T03:43:19.859Z,99151.31
2023-01-28T03:45:51.403Z,99159.28
2023-01-28T03:48:19.184Z,99158.31
2023-01-28T03:50:46.632Z,99157.44
2023-01-28T03:53:16.898Z,99159.66
2023-01-28T03:55:44.893Z,99162.47
2023-01-28T03:58:12.362Z,99168.09
2023-01-28T04:00:43.338Z,99165.81
2023-01-28T04:03:17.292Z,99163.94
2023-01-28T04:06:07.910Z,99161.69
2023-01-28T04:08:37.333Z,99166.34
2023-01-28T04:11:19.464Z,99162.47
2023-01-28T04:13:48.537Z,99153.03
2023-01-28T04:16:16.669Z,99159.12
2023-01-28T04:18:44.009Z,99152.38
2023-01-28T04:21:11.613Z,99162.31
2023-01-28T04:23:38.877Z,99160.22
2023-01-28T04:26:07.225Z,99160.97
2023-01-28T04:28:35.054Z,99161.47
2023-01-28T04:31:02.467Z,99168.84
2023-01-28T04:33:31.689Z,99174.84
2023-01-28T04:35:59.280Z,99171.41
2023-01-28T04:38:28.713Z,99172.50
2023-01-28T04:40:56.901Z,99169.66
2023-01-28T04:43:24.547Z,99171.63
2023-01-28T04:45:51.827Z,99174.97
2023-01-28T04:48:19.249Z,99173.66
2023-01-28T04:50:46.850Z,99168.34
2023-01-28T04:53:14.172Z,99185.59
2023-01-28T04:55:45.618Z,99180.88
2023-01-28T04:58:13.601Z,99187.75
2023-01-28T05:00:41.304Z,99201.09
2023-01-28T05:03:09.668Z,99185.41
2023-01-28T05:05:38.190Z,99186.03
2023-01-28T05:08:06.352Z,99188.69
2023-01-28T05:10:33.862Z,99192.00
2023-01-28T05:13:01.277Z,99194.41
2023-01-28T05:15:29.057Z,99197.31
2023-01-28T05:17:57.362Z,99195.56
2023-01-28T05:20:25.522Z,99194.50
2023-01-28T05:22:53.809Z,99203.19
2023-01-28T05:25:21.176Z,99200.72
2023-01-28T05:27:51.691Z,99209.97
2023-01-28T05:30:19.700Z,99202.53
2023-01-28T05:32:47.059Z,99202.31
2023-01-28T05:35:15.655Z,99207.81
2023-01-28T05:37:43.012Z,99202.09
2023-01-28T05:40:11.787Z,99223.13
2023-01-28T05:42:39.486Z,99207.19
2023-01-28T05:45:08.727Z,99212.84
2023-01-28T05:47:36.343Z,99205.41
2023-01-28T05:50:04.479Z,99214.97
2023-01-28T05:52:33.290Z,99213.41
2023-01-28T05:55:01.390Z,99211.59
2023-01-28T05:57:28.857Z,99218.97
2023-01-28T05:59:56.134Z,99223.66
2023-01-28T06:02:23.374Z,99220.25
2023-01-28T06:04:51.338Z,99218.19
2023-01-28T06:07:20.223Z,99226.88
2023-01-28T06:09:48.429Z,99223.66
2023-01-28T06:12:16.502Z,99228.69
2023-01-28T06:14:45.548Z,99217.91
2023-01-28T06:17:12.875Z,99228.03
2023-01-28T06:19:40.751Z,99232.75
2023-01-28T06:22:08.110Z,99229.53
2023-01-28T06:24:35.354Z,99233.13
2023-01-28T06:27:02.826Z,99239.81
2023-01-28T06:29:48.360Z,99241.66
2023-01-28T06:32:16.808Z,99245.31
2023-01-28T06:34:43.965Z,99247.25
2023-01-28T06:37:14.353Z,99252.03
2023-01-28T06:39:41.771Z,99253.97
2023-01-28T06:42:08.906Z,99247.84
2023-01-28T06:44:36.617Z,99256.31
2023-01-28T06:47:04.076Z,99258.75
2023-01-28T06:49:31.277Z,99257.75
2023-01-28T06:51:58.517Z,99264.72
2023-01-28T06:54:25.977Z,99273.84
2023-01-28T06:56:53.130Z,99278.72
2023-01-28T06:59:20.318Z,99280.19
2023-01-28T07:01:47.812Z,99288.06
2023-01-28T07:04:15.029Z,99291.28
2023-01-28T07:06:42.380Z,99283.50
2023-01-28T07:09:09.858Z,99282.66
2023-01-28T07:11:37.039Z,99288.25
2023-01-28T07:14:04.902Z,99287.63
2023-01-28T07:16:32.319Z,99294.75
2023-01-28T07:18:59.487Z,99302.66
2023-01-28T07:21:26.646Z,99300.31
2023-01-28T07:23:54.122Z,99303.91
2023-01-28T07:26:21.330Z,99309.09
2023-01-28T07:28:48.465Z,99303.81
2023-01-28T07:31:16.024Z,99312.66
2023-01-28T07:33:43.443Z,99319.84
2023-01-28T07:36:10.582Z,99309.44
2023-01-28T07:38:38.015Z,99314.09
2023-01-28T07:41:05.332Z,99314.25
2023-01-28T07:43:32.479Z,99319.50
2023-01-28T07:46:00.543Z,99315.00
2023-01-28T07:48:27.719Z,99318.38
2023-01-28T07:50:58.172Z,99315.75
2023-01-28T07:53:25.653Z,99320.31
2023-01-28T07:55:52.870Z,99321.00
2023-01-28T07:58:20.030Z,99320.16
2023-01-28T08:00:47.586Z,99318.69
2023-01-28T08:03:15.910Z,99329.22
2023-01-28T08:05:47.437Z,99329.97
2023-01-28T08:08:15.093Z,99331.63
2023-01-28T08:10:44.054Z,99319.81
2023-01-28T08:13:11.561Z,99333.66
2023-01-28T08:15:39.085Z,99330.84
2023-01-28T08:18:06.966Z,99329.28
2023-01-28T08:20:34.318Z,99333.03
2023-01-28T08:23:08.687Z,99330.28
2023-01-28T08:25:35.980Z,99325.09
2023-01-28T08:30:52.140Z,99325.75
2023-01-28T08:33:20.007Z,99331.06
2023-01-28T08:35:47.222Z,99330.53
2023-01-28T08:38:17.928Z,99340.38
2023-01-28T08:40:45.343Z,99341.62
2023-01-28T08:43:12.578Z,99339.41
2023-01-28T08:45:39.847Z,99346.94
2023-01-28T08:48:07.887Z,99346.75
2023-01-28T08:50:36.332Z,99345.28
2023-01-28T08:53:04.396Z,99341.84
2023-01-28T08:55:31.922Z,99356.97
2023-01-28T08:58:03.997Z,99349.38
2023-01-28T09:00:31.616Z,99356.84
2023-01-28T09:02:58.755Z,99367.38
2023-01-28T09:05:25.964Z,99361.72
2023-01-28T09:07:53.397Z,99371.19
2023-01-28T09:10:20.621Z,99365.91
2023-01-28T09:12:47.890Z,99366.44
2023-01-28T09:15:15.432Z,99379.00
2023-01-28T09:17:42.584Z,99371.13
2023-01-28T09:20:10.118Z,99372.16
2023-01-28T09:22:37.552Z,99377.03
2023-01-28T09:25:04.888Z,99371.53
2023-01-28T09:27:32.091Z,99371.44
2023-01-28T09:29:59.543Z,99382.47
2023-01-28T09:32:26.691Z,99379.06
2023-01-28T09:34:53.811Z,99381.47
2023-01-28T09:37:21.230Z,99376.19
2023-01-28T09:39:48.413Z,99372.62
2023-01-28T09:42:27.624Z,99371.41
2023-01-28T09:45:15.027Z,99366.28
2023-01-28T09:47:44.103Z,99376.78
2023-01-28T09:50:16.883Z,99376.41
2023-01-28T09:52:44.255Z,99374.00
2023-01-28T09:55:14.695Z,99390.91
2023-01-28T09:57:44.787Z,99380.72
2023-01-28T10:00:18.526Z,99377.66
2023-01-28T10:03:04.930Z,99369.31
2023-01-28T10:05:32.071Z,99372.38
2023-01-28T10:08:18.137Z,99364.84
2023-01-28T10:10:47.482Z,99365.06
2023-01-28T10:13:37.876Z,99370.38
2023-01-28T10:16:06.480Z,99380.38
2023-01-28T10:18:54.173Z,99361.63
2023-01-28T10:21:31.334Z,99362.28
2023-01-28T10:23:58.849Z,99366.25
2023-01-28T10:26:28.087Z,99366.88
2023-01-28T10:28:56.573Z,99374.38
2023-01-28T10:31:24.233Z,99362.38
2023-01-28T10:33:51.411Z,99363.84
2023-01-28T10:36:18.705Z,99366.72
2023-01-28T10:38:47.140Z,99372.06
2023-01-28T10:41:16.103Z,99370.72
2023-01-28T10:43:43.249Z,99368.47
2023-01-28T10:46:17.919Z,99369.34
2023-01-28T10:49:03.990Z,99374.16
2023-01-28T10:51:32.788Z,99369.47
2023-01-28T10:53:59.960Z,99376.09
2023-01-28T10:56:27.850Z,99363.03
2023-01-28T10:59:01.578Z,99366.47
2023-01-28T11:01:39.281Z,99368.28
2023-01-28T11:04:06.828Z,99367.09
2023-01-28T11:06:33.966Z,99364.00
2023-01-28T11:09:01.648Z,99368.37
2023-01-28T11:11:29.838Z,99365.41
2023-01-28T11:13:58.745Z,99367.56
2023-01-28T11:16:27.389Z,99372.06
2023-01-28T11:19:04.237Z,99364.41
2023-01-28T11:21:31.543Z,99373.16
2023-01-28T11:24:00.249Z,99365.84
2023-01-28T11:26:28.670Z,99362.41
2023-01-28T11:28:55.809Z,99357.94
2023-01-28T11:31:26.537Z,99365.22
2023-01-28T11:33:57.339Z,99361.50
2023-01-28T11:36:28.460Z,99352.84
2023-01-28T11:38:56.627Z,99353.19
2023-01-28T11:41:28.383Z,99354.50
2023-01-28T11:43:56.925Z,99357.19
2023-01-28T11:46:43.713Z,99355.63
2023-01-28T11:49:11.136Z,99359.66
2023-01-28T11:51:43.307Z,99355.78
2023-01-28T11:54:18.056Z,99361.94
2023-01-28T11:56:48.354Z,99354.69
2023-01-28T11:59:32.315Z,99348.41
2023-01-28T12:02:18.468Z,99347.13
2023-01-28T12:05:12.608Z,99343.03
2023-01-28T12:07:55.682Z,99348.13
2023-01-28T12:10:25.477Z,99343.47
2023-01-28T12:13:03.755Z,99340.75
2023-01-28T12:15:51.226Z,99346.88
2023-01-28T12:18:32.164Z,99333.03
2023-01-28T12:21:08.404Z,99337.94
2023-01-28T12:23:38.954Z,99335.31
2023-01-28T12:26:06.417Z,99339.06
2023-01-28T12:28:49.577Z,99338.09
2023-01-28T12:31:36.138Z,99330.31
2023-01-28T12:34:07.788Z,99338.06
2023-01-28T12:36:42.286Z,99344.72
2023-01-28T12:39:26.796Z,99340.72
2023-01-28T12:42:04.004Z,99338.75
2023-01-28T12:44:35.353Z,99355.41
2023-01-28T12:47:05.842Z,99338.75
2023-01-28T12:49:37.512Z,99342.78
2023-01-28T12:52:16.073Z,99344.59
2023-01-28T12:55:18.896Z,99342.91
2023-01-28T12:57:46.335Z,99345.87
2023-01-28T13:00:27.420Z,99346.81
2023-01-28T13:03:01.126Z,99347.09
2023-01-28T13:05:33.033Z,99341.66
2023-01-28T13:08:05.623Z,99340.44
2023-01-28T13:10:40.649Z,99351.03
2023-01-28T13:13:09.388Z,99349.31
2023-01-28T13:15:36.873Z,99353.56
2023-01-28T13:18:05.050Z,99365.94
2023-01-28T13:20:37.084Z,99365.53
2023-01-28T13:23:06.642Z,99366.84
2023-01-28T13:25:34.640Z,99365.31
2023-01-28T13:28:02.630Z,99360.09
2023-01-28T13:30:31.771Z,99366.47
2023-01-28T13:33:03.356Z,99364.81
2023-01-28T13:35:37.600Z,99371.72
2023-01-28T13:38:16.326Z,99370.25
2023-01-28T13:40:43.667Z,99370.44
2023-01-28T13:43:26.103Z,99376.06
2023-01-28T13:45:57.553Z,99382.47
2023-01-28T13:48:33.726Z,99377.63
2023-01-28T13:51:02.039Z,99383.34
2023-01-28T13:53:44.517Z,99391.94
2023-01-28T13:56:28.301Z,99391.47
2023-01-28T13:58:58.756Z,99394.97
2023-01-28T14:01:31.453Z,99395.19
2023-01-28T14:04:34.464Z,99390.66
2023-01-28T14:07:01.618Z,99402.56
2023-01-28T14:09:55.322Z,99396.44
2023-01-28T14:12:40.935Z,99396.69
2023-01-28T14:15:20.387Z,99406.37
2023-01-28T14:17:48.665Z,99408.06
2023-01-28T14:20:24.914Z,99400.63
2023-01-28T14:23:01.373Z,99402.72
2023-01-28T14:25:40.900Z,99405.47
2023-01-28T14:28:09.921Z,99414.81
2023-01-28T14:30:43.743Z,99416.91
2023-01-28T14:33:11.330Z,99418.50
2023-01-28T14:35:40.028Z,99421.66
2023-01-28T14:38:07.920Z,99422.34
2023-01-28T14:40:36.449Z,99423.84
2023-01-28T14:43:04.008Z,99429.09
2023-01-28T14:45:40.320Z,99430.25
2023-01-28T14:48:16.567Z,99423.34
2023-01-28T14:50:49.575Z,99422.31
2023-01-28T14:53:35.707Z,99439.03
2023-01-28T14:56:14.920Z,99431.25
2023-01-28T14:58:44.205Z,99442.81
2023-01-28T15:01:24.898Z,99444.47
2023-01-28T15:03:52.483Z,99441.56
2023-01-28T15:06:21.090Z,99438.47
2023-01-28T15:08:48.348Z,99432.59
2023-01-28T15:11:17.762Z,99437.34
2023-01-28T15:13:48.570Z,99444.91
2023-01-28T15:16:16.887Z,99445.50
2023-01-28T15:18:44.093Z,99459.09
2023-01-28T15:21:11.313Z,99461.78
2023-01-28T15:23:39.850Z,99463.56
2023-01-28T15:26:07.572Z,99470.09
2023-01-28T15:28:35.680Z,99464.41
2023-01-28T15:31:03.268Z,99471.03
2023-01-28T15:33:30.650Z,99474.00
2023-01-28T15:35:58.579Z,99459.87
2023-01-28T15:38:27.160Z,99471.38
2023-01-28T15:41:01.423Z,99472.81
2023-01-28T15:43:29.503Z,99483.66
2023-01-28T15:45:57.351Z,99484.34
2023-01-28T15:48:31.012Z,99474.72
2023-01-28T15:51:02.642Z,99486.44
2023-01-28T15:53:34.499Z,99487.62
2023-01-28T15:56:06.293Z,99486.06
2023-01-28T15:58:35.288Z,99492.91
2023-01-28T16:01:08.902Z,99498.91
2023-01-28T16:03:40.595Z,99501.72
2023-01-28T16:06:16.017Z,99502.62
2023-01-28T16:08:48.277Z,99509.94
2023-01-28T16:11:21.662Z,99514.81
2023-01-28T16:13:49.234Z,99511.34
2023-01-28T16:16:24.373Z,99509.38
2023-01-28T16:18:56.062Z,99514.28
2023-01-28T16:21:32.262Z,99510.97
2023-01-28T16:24:00.259Z,99525.28
2023-01-28T16:26:28.896Z,99524.56
2023-01-28T16:28:56.186Z,99522.19
2023-01-28T16:31:23.745Z,99525.16
2023-01-28T16:33:50.993Z,99532.50
2023-01-28T16:36:19.513Z,99536.94
2023-01-28T16:38:47.987Z,99539.91
2023-01-28T16:41:18.826Z,99533.59
2023-01-28T16:43:47.362Z,99536.25
2023-01-28T16:46:18.620Z,99543.37
2023-01-28T16:48:47.726Z,99542.84
2023-01-28T16:51:17.498Z,99542.50
2023-01-28T16:53:48.670Z,99546.53
2023-01-28T16:56:35.814Z,99548.56
2023-01-28T16:59:04.245Z,99548.56
2023-01-28T17:01:31.878Z,99552.56
2023-01-28T17:03:59.143Z,99549.13
2023-01-28T17:06:26.681Z,99542.91
2023-01-28T17:08:54.726Z,99546.53
2023-01-28T17:11:22.434Z,99554.28
2023-01-28T17:13:49.571Z,99553.59
2023-01-28T17:16:17.297Z,99559.56
2023-01-28T17:18:46.317Z,99556.84
2023-01-28T17:21:14.605Z,99557.44
2023-01-28T17:23:42.859Z,99563.91
2023-01-28T17:26:10.932Z,99567.50
2023-01-28T17:28:38.240Z,99572.13
2023-01-28T17:31:07.251Z,99576.72
2023-01-28T17:33:35.296Z,99577.44
2023-01-28T17:36:02.998Z,99576.75
2023-01-28T17:38:31.002Z,99574.84
2023-01-28T17:41:02.602Z,99588.00
2023-01-28T17:43:30.118Z,99599.91
2023-01-28T17:45:57.929Z,99594.53
2023-01-28T17:48:25.660Z,99583.75
2023-01-28T17:50:57.552Z,99598.13
2023-01-28T17:53:25.526Z,99589.87
2023-01-28T17:55:53.743Z,99597.91
2023-01-28T17:58:21.474Z,99598.94
2023-01-28T18:00:49.060Z,99599.38
2023-01-28T18:03:17.005Z,99598.03
2023-01-28T18:05:44.832Z,99595.94
2023-01-28T18:08:12.542Z,99605.06
2023-01-28T18:10:43.116Z,99596.00
2023-01-28T18:13:10.625Z,99602.19
2023-01-28T18:15:38.126Z,99607.22
2023-01-28T18:18:06.081Z,99615.97
2023-01-28T18:20:34.714Z,99623.56
2023-01-28T18:23:01.887Z,99620.09
2023-01-28T18:25:36.358Z,99627.28
2023-01-28T18:28:05.291Z,99631.41
2023-01-28T18:30:33.368Z,99623.66
2023-01-28T18:33:00.599Z,99618.16
2023-01-28T18:35:27.791Z,99629.47
2023-01-28T18:37:56.113Z,99626.38
2023-01-28T18:40:23.884Z,99623.12
2023-01-28T18:42:52.464Z,99627.56
2023-01-28T18:45:22.440Z,99620.75
2023-01-28T18:47:50.808Z,99629.47
2023-01-28T18:50:18.279Z,99632.41
2023-01-28T18:52:46.194Z,99633.75
2023-01-28T18:55:13.559Z,99638.22
2023-01-28T18:57:42.629Z,99644.88
2023-01-28T19:00:11.573Z,99639.69
2023-01-28T19:02:39.067Z,99635.03
2023-01-28T19:05:07.081Z,99635.50
2023-01-28T19:07:35.012Z,99631.44
2023-01-28T19:10:03.506Z,99633.56
2023-01-28T19:12:32.899Z,99640.16
2023-01-28T19:15:00.757Z,99634.81
2023-01-28T19:17:28.616Z,99636.94
2023-01-28T19:19:56.255Z,99643.59
2023-01-28T19:22:24.357Z,99650.09
2023-01-28T19:24:52.025Z,99646.41
2023-01-28T19:27:20.187Z,99645.41
2023-01-28T19:29:48.458Z,99652.41
2023-01-28T19:32:16.364Z,99653.13
2023-01-28T19:34:43.929Z,99656.25
2023-01-28T19:37:12.344Z,99645.53
2023-01-28T19:39:41.587Z,99658.28
2023-01-28T19:42:09.187Z,99650.72
2023-01-28T19:44:37.402Z,99659.34
2023-01-28T19:47:09.019Z,99651.78
2023-01-28T19:49:37.775Z,99663.09
2023-01-28T19:52:09.444Z,99666.66
2023-01-28T19:54:37.574Z,99665.81
2023-01-28T19:57:05.940Z,99675.03
2023-01-28T19:59:33.754Z,99672.13
2023-01-28T20:02:01.916Z,99672.94
2023-01-28T20:04:30.608Z,99677.62
2023-01-28T20:06:58.205Z,99679.88
2023-01-28T20:09:25.900Z,99678.75
2023-01-28T20:11:54.554Z,99687.44
2023-01-28T20:14:23.028Z,99688.84
2023-01-28T20:16:51.628Z,99689.63
2023-01-28T20:19:19.802Z,99693.44
2023-01-28T20:21:47.728Z,99685.81
2023-01-28T20:24:15.924Z,99684.94
2023-01-28T20:26:44.494Z,99682.25
2023-01-28T20:29:18.113Z,99686.72
2023-01-28T20:31:54.716Z,99696.00
2023-01-28T20:34:32.706Z,99697.69
2023-01-28T20:37:00.796Z,99693.56
2023-01-28T20:39:29.776Z,99706.38
2023-01-28T20:41:59.404Z,99696.31
2023-01-28T20:44:31.944Z,99699.25
2023-01-28T20:46:59.673Z,99698.69
2023-01-28T20:49:31.377Z,99710.56
2023-01-28T20:51:59.220Z,99710.44
2023-01-28T20:54:29.691Z,99709.84
2023-01-28T20:56:57.792Z,99720.34
2023-01-28T20:59:25.693Z,99708.56
2023-01-28T21:01:53.789Z,99717.38
2023-01-28T21:04:21.144Z,99716.78
2023-01-28T21:06:50.475Z,99725.84
2023-01-28T21:09:18.861Z,99741.16
2023-01-28T21:11:46.274Z,99740.72
2023-01-28T21:14:17.274Z,99736.78
2023-01-28T21:16:45.733Z,99736.69
2023-01-28T21:19:13.709Z,99735.09
2023-01-28T21:21:43.301Z,99728.88
2023-01-28T21:24:12.548Z,99730.34
2023-01-28T21:26:40.315Z,99737.31
2023-01-28T21:29:08.034Z,99737.28
2023-01-28T21:31:36.954Z,99741.22
2023-01-28T21:34:04.304Z,99741.69
2023-01-28T21:36:38.758Z,99744.88
2023-01-28T21:39:07.005Z,99741.87
2023-01-28T21:41:34.699Z,99744.28
2023-01-28T21:44:02.219Z,99734.50
2023-01-28T21:46:30.485Z,99752.47
2023-01-28T21:48:58.899Z,99739.19
2023-01-28T21:51:35.724Z,99741.63
2023-01-28T21:54:04.578Z,99740.44
2023-01-28T21:56:32.069Z,99747.38
2023-01-28T21:59:18.324Z,99740.22
2023-01-28T22:01:45.968Z,99747.25
2023-01-28T22:04:14.213Z,99744.06
2023-01-28T22:06:42.369Z,99744.59
2023-01-28T22:09:11.939Z,99747.38
2023-01-28T22:11:40.507Z,99745.22
2023-01-28T22:14:07.904Z,99746.84
2023-01-28T22:16:35.097Z,99748.53
2023-01-28T22:19:02.941Z,99750.41
2023-01-28T22:21:30.208Z,99746.53
2023-01-28T22:23:57.395Z,99741.47
2023-01-28T22:26:24.883Z,99736.69
2023-01-28T22:28:52.094Z,99746.50
2023-01-28T22:31:19.302Z,99752.22
2023-01-28T22:33:46.792Z,99749.09
2023-01-28T22:36:15.076Z,99748.44
2023-01-28T22:38:45.516Z,99749.69
2023-01-28T22:41:14.261Z,99752.19
2023-01-28T22:43:41.433Z,99759.41
2023-01-28T22:46:09.188Z,99752.16
2023-01-28T22:48:37.331Z,99752.53
2023-01-28T22:51:05.822Z,99764.87
2023-01-28T22:53:33.014Z,99760.16
2023-01-28T22:56:00.996Z,99757.81
2023-01-28T22:58:31.272Z,99745.41
2023-01-28T23:00:59.137Z,99763.50
2023-01-28T23:03:30.423Z,99758.97
2023-01-28T23:05:58.961Z,99765.53
2023-01-28T23:08:26.687Z,99765.66
2023-01-28T23:10:57.232Z,99759.09
2023-01-28T23:13:28.533Z,99765.06
2023-01-28T23:16:15.990Z,99759.00
2023-01-28T23:19:04.543Z,99759.28
2023-01-28T23:21:50.824Z,99766.22
2023-01-28T23:24:19.576Z,99772.03
2023-01-28T23:26:51.905Z,99757.44
2023-01-28T23:29:20.445Z,99764.00
2023-01-28T23:31:47.946Z,99767.88
2023-01-28T23:34:15.375Z,99769.53
2023-01-28T23:36:42.799Z,99772.97
2023-01-28T23:39:10.499Z,99772.50
2023-01-28T23:41:47.200Z,99769.12
2023-01-28T23:44:27.069Z,99778.97
2023-01-28T23:46:54.423Z,99776.50
2023-01-28T23:49:21.705Z,99774.72
2023-01-28T23:51:49.631Z,99774.16
2023-01-28T23:54:17.507Z,99770.88
2023-01-28T23:56:44.723Z,99775.50
2023-01-28T23:59:12.174Z,99778.28
